createdAt,value
2022-09-16T00:00:59.293Z,0.50
2022-09-16T00:03:26.902Z,0.50
2022-09-16T00:05:54.529Z,0.60
2022-09-16T00:08:25.181Z,0.40
2022-09-16T00:10:52.751Z,0.60
2022-09-16T00:13:20.046Z,0.47
2022-09-16T00:15:51.552Z,1.33
2022-09-16T00:18:20.791Z,0.60
2022-09-16T00:20:51.513Z,2.67
2022-09-16T00:23:19.810Z,0.83
2022-09-16T00:25:55.111Z,0.50
2022-09-16T00:28:23.943Z,0.60
2022-09-16T00:30:51.390Z,0.50
2022-09-16T00:33:19.924Z,1.73
2022-09-16T00:35:47.835Z,0.53
2022-09-16T00:38:15.672Z,0.50
2022-09-16T00:40:50.751Z,0.50
2022-09-16T00:43:19.390Z,0.40
2022-09-16T00:46:10.271Z,1.33
2022-09-16T00:48:37.473Z,0.43
2022-09-16T00:51:08.072Z,0.50
2022-09-16T00:53:42.929Z,0.40
2022-09-16T00:56:14.391Z,0.93
2022-09-16T00:58:54.085Z,0.97
2022-09-16T01:01:22.495Z,0.50
2022-09-16T01:03:54.492Z,2.43
2022-09-16T01:06:23.831Z,0.57
2022-09-16T01:08:51.771Z,0.50
2022-09-16T01:11:19.091Z,0.97
2022-09-16T01:13:47.512Z,0.67
2022-09-16T01:16:38.581Z,0.60
2022-09-16T01:19:14.122Z,3.80
2022-09-16T01:21:58.201Z,0.87
2022-09-16T01:24:47.188Z,0.80
2022-09-16T01:27:21.261Z,1.67
2022-09-16T01:30:17.377Z,3.10
2022-09-16T01:32:53.551Z,1.10
2022-09-16T01:35:42.577Z,2.10
2022-09-16T01:38:37.659Z,1.93
2022-09-16T01:41:21.923Z,1.70
2022-09-16T01:44:11.815Z,1.93
2022-09-16T01:46:56.358Z,1.93
2022-09-16T01:49:36.203Z,3.57
2022-09-16T01:52:21.537Z,6.47
2022-09-16T01:54:59.574Z,2.40
2022-09-16T01:57:45.531Z,2.20
2022-09-16T02:00:14.647Z,2.20
2022-09-16T02:03:04.170Z,2.37
2022-09-16T02:06:01.219Z,2.47
2022-09-16T02:08:34.957Z,2.33
2022-09-16T02:11:06.457Z,6.80
2022-09-16T02:13:43.655Z,3.27
2022-09-16T02:16:34.858Z,10.17
2022-09-16T02:19:20.785Z,3.07
2022-09-16T02:21:51.699Z,8.17
2022-09-16T02:24:22.332Z,4.80
2022-09-16T02:26:55.306Z,2.37
2022-09-16T02:29:26.005Z,2.90
2022-09-16T02:31:58.350Z,10.63
2022-09-16T02:34:36.542Z,21.27
2022-09-16T02:37:12.088Z,3.90
2022-09-16T02:39:44.378Z,4.63
2022-09-16T02:42:11.821Z,11.13
2022-09-16T02:44:39.390Z,5.30
2022-09-16T02:47:30.037Z,16.37
2022-09-16T02:50:10.871Z,8.43
2022-09-16T02:52:40.362Z,8.67
2022-09-16T02:55:39.595Z,2.57
2022-09-16T02:58:08.204Z,4.30
2022-09-16T03:00:41.401Z,3.40
2022-09-16T03:03:09.693Z,2.80
2022-09-16T03:05:50.006Z,2.63
2022-09-16T03:08:19.242Z,7.03
2022-09-16T03:10:49.692Z,5.03
2022-09-16T03:13:29.075Z,3.10
2022-09-16T03:16:15.216Z,3.87
2022-09-16T03:18:57.469Z,3.73
2022-09-16T03:21:39.490Z,4.47
2022-09-16T03:24:27.734Z,3.93
2022-09-16T03:27:06.671Z,3.40
2022-09-16T03:29:49.378Z,3.00
2022-09-16T03:32:22.851Z,3.23
2022-09-16T03:35:16.209Z,3.00
2022-09-16T03:37:45.406Z,5.13
2022-09-16T03:40:15.625Z,2.90
2022-09-16T03:42:44.306Z,3.40
2022-09-16T03:45:22.332Z,3.63
2022-09-16T03:47:51.260Z,4.03
2022-09-16T03:50:19.772Z,2.80
2022-09-16T03:52:47.571Z,3.70
2022-09-16T03:55:17.190Z,3.70
2022-09-16T03:57:44.571Z,3.40
2022-09-16T04:00:12.448Z,3.47
2022-09-16T04:02:40.101Z,3.70
2022-09-16T04:05:09.093Z,3.60
2022-09-16T04:07:36.670Z,3.70
2022-09-16T04:10:05.721Z,3.37
2022-09-16T04:12:33.220Z,3.70
2022-09-16T04:15:01.131Z,3.40
2022-09-16T04:17:32.260Z,4.00
2022-09-16T04:19:59.817Z,3.80
2022-09-16T04:22:31.171Z,3.70
2022-09-16T04:24:58.528Z,3.67
2022-09-16T04:27:26.074Z,3.67
2022-09-16T04:29:53.551Z,3.90
2022-09-16T04:32:21.771Z,3.43
2022-09-16T04:34:49.183Z,3.60
2022-09-16T04:37:16.618Z,3.47
2022-09-16T04:39:43.951Z,3.47
2022-09-16T04:42:12.502Z,3.60
2022-09-16T04:44:40.050Z,3.30
2022-09-16T04:47:07.639Z,3.17
2022-09-16T04:49:35.743Z,3.17
2022-09-16T04:52:03.810Z,3.00
2022-09-16T04:54:31.133Z,3.03
2022-09-16T04:56:58.510Z,3.00
2022-09-16T04:59:25.951Z,3.35
2022-09-16T05:01:53.767Z,3.10
2022-09-16T05:04:21.059Z,3.17
2022-09-16T05:06:48.590Z,4.03
2022-09-16T05:09:15.829Z,3.05
2022-09-16T05:11:42.988Z,2.83
2022-09-16T05:14:18.342Z,2.80
2022-09-16T05:16:46.679Z,3.17
2022-09-16T05:19:14.570Z,3.13
2022-09-16T05:21:42.829Z,2.90
2022-09-16T05:24:12.332Z,2.80
2022-09-16T05:26:45.111Z,2.90
2022-09-16T05:29:17.403Z,2.90
2022-09-16T05:31:48.929Z,2.80
2022-09-16T05:34:19.132Z,2.53
2022-09-16T05:36:48.066Z,2.67
2022-09-16T05:39:26.211Z,2.42
2022-09-16T05:41:56.600Z,2.22
2022-09-16T05:44:24.393Z,2.30
2022-09-16T05:46:52.109Z,1.98
2022-09-16T05:49:21.111Z,1.98
2022-09-16T05:51:49.729Z,1.90
2022-09-16T05:54:18.864Z,1.98
2022-09-16T05:56:47.206Z,1.73
2022-09-16T05:59:15.781Z,1.85
2022-09-16T06:01:43.364Z,1.90
2022-09-16T06:04:13.163Z,1.85
2022-09-16T06:06:43.235Z,1.73
2022-09-16T06:09:12.000Z,1.80
2022-09-16T06:11:44.758Z,1.80
2022-09-16T06:14:13.850Z,1.70
2022-09-16T06:16:42.062Z,1.80
2022-09-16T06:19:13.294Z,1.67
2022-09-16T06:21:41.105Z,1.55
2022-09-16T06:24:09.272Z,1.58
2022-09-16T06:26:38.787Z,1.40
2022-09-16T06:29:06.810Z,1.20
2022-09-16T06:31:36.413Z,1.42
2022-09-16T06:34:05.614Z,1.33
2022-09-16T06:36:37.837Z,1.42
2022-09-16T06:39:08.138Z,1.30
2022-09-16T06:41:35.456Z,1.10
2022-09-16T06:44:03.333Z,1.25
2022-09-16T06:46:30.963Z,0.95
2022-09-16T06:49:01.573Z,1.05
2022-09-16T06:51:32.877Z,0.90
2022-09-16T06:54:04.366Z,0.95
2022-09-16T06:56:31.742Z,0.85
2022-09-16T06:58:59.204Z,1.20
2022-09-16T07:01:29.841Z,2.25
2022-09-16T07:03:58.954Z,1.10
2022-09-16T07:09:17.460Z,1.20
2022-09-16T07:11:44.788Z,0.90
2022-09-16T07:14:12.462Z,0.93
2022-09-16T07:16:39.880Z,1.20
2022-09-16T07:19:07.631Z,0.95
2022-09-16T07:21:35.126Z,1.00
2022-09-16T07:24:03.521Z,0.70
2022-09-16T07:26:33.746Z,0.90
2022-09-16T07:29:03.138Z,0.82
2022-09-16T07:31:33.302Z,0.93
2022-09-16T07:34:04.867Z,0.98
2022-09-16T07:36:39.651Z,1.00
2022-09-16T07:39:08.276Z,0.85
2022-09-16T07:41:38.134Z,0.80
2022-09-16T07:44:07.653Z,0.90
2022-09-16T07:46:36.558Z,0.90
2022-09-16T07:49:06.060Z,1.52
2022-09-16T07:51:33.794Z,0.90
2022-09-16T07:54:04.489Z,1.15
2022-09-16T07:56:34.773Z,1.17
2022-09-16T07:59:03.983Z,0.90
2022-09-16T08:01:31.555Z,0.98
2022-09-16T08:04:00.539Z,0.80
2022-09-16T08:06:30.683Z,0.90
2022-09-16T08:09:15.324Z,2.17
2022-09-16T08:11:47.185Z,1.30
2022-09-16T08:14:14.312Z,0.85
2022-09-16T08:16:41.723Z,1.15
2022-09-16T08:19:09.698Z,1.00
2022-09-16T08:21:36.800Z,1.00
2022-09-16T08:24:04.232Z,1.10
2022-09-16T08:26:31.749Z,1.80
2022-09-16T08:29:08.331Z,0.93
2022-09-16T08:31:36.505Z,0.90
2022-09-16T08:34:04.215Z,1.00
2022-09-16T08:36:33.318Z,1.08
2022-09-16T08:39:01.105Z,1.10
2022-09-16T08:41:56.118Z,0.85
2022-09-16T08:44:44.915Z,0.80
2022-09-16T08:47:42.772Z,0.80
2022-09-16T08:50:36.925Z,0.77
2022-09-16T08:53:11.371Z,0.70
2022-09-16T08:55:42.955Z,1.63
2022-09-16T08:58:23.097Z,1.45
2022-09-16T09:00:56.726Z,0.57
2022-09-16T09:03:46.095Z,1.33
2022-09-16T09:06:44.625Z,0.88
2022-09-16T09:09:33.385Z,0.80
2022-09-16T09:12:16.881Z,0.70
2022-09-16T09:14:54.200Z,0.90
2022-09-16T09:17:50.179Z,0.68
2022-09-16T09:20:43.982Z,0.75
2022-09-16T09:23:39.248Z,0.70
2022-09-16T09:26:22.806Z,1.80
2022-09-16T09:29:12.366Z,2.45
2022-09-16T09:32:11.735Z,0.73
2022-09-16T09:35:04.846Z,0.70
2022-09-16T09:37:53.566Z,0.70
2022-09-16T09:40:31.724Z,0.73
2022-09-16T09:43:26.368Z,0.80
2022-09-16T09:46:18.825Z,0.80
2022-09-16T09:49:19.015Z,0.52
2022-09-16T09:51:56.891Z,0.70
2022-09-16T09:54:34.284Z,0.60
2022-09-16T09:57:31.991Z,0.57
2022-09-16T10:00:12.261Z,0.73
2022-09-16T10:02:48.834Z,0.50
2022-09-16T10:05:24.353Z,0.40
2022-09-16T10:07:55.647Z,0.63
2022-09-16T10:10:25.418Z,1.13
2022-09-16T10:12:54.020Z,0.50
2022-09-16T10:15:32.130Z,0.68
2022-09-16T10:18:01.869Z,0.40
2022-09-16T10:20:37.318Z,0.50
2022-09-16T10:23:13.561Z,0.50
2022-09-16T10:25:42.117Z,0.75
2022-09-16T10:28:29.912Z,0.50
2022-09-16T10:30:59.848Z,0.43
2022-09-16T10:33:37.489Z,0.47
2022-09-16T10:36:09.010Z,0.55
2022-09-16T10:38:43.684Z,0.63
2022-09-16T10:41:23.625Z,0.65
2022-09-16T10:43:55.048Z,0.45
2022-09-16T10:46:22.845Z,1.17
2022-09-16T10:48:52.477Z,0.50
2022-09-16T10:51:28.466Z,0.57
2022-09-16T10:54:01.103Z,0.63
2022-09-16T10:56:34.659Z,0.57
2022-09-16T10:59:04.288Z,0.52
2022-09-16T11:01:50.103Z,0.40
2022-09-16T11:04:36.369Z,0.40
2022-09-16T11:07:25.266Z,0.40
2022-09-16T11:10:12.135Z,0.32
2022-09-16T11:12:56.888Z,0.30
2022-09-16T11:15:52.859Z,0.40
2022-09-16T11:18:57.853Z,0.47
2022-09-16T11:21:42.653Z,0.20
2022-09-16T11:24:27.321Z,0.30
2022-09-16T11:27:19.049Z,0.40
2022-09-16T11:29:49.535Z,0.52
2022-09-16T11:32:32.197Z,1.98
2022-09-16T11:35:29.927Z,0.52
2022-09-16T11:38:27.097Z,0.35
2022-09-16T11:41:04.064Z,0.52
2022-09-16T11:43:50.333Z,1.13
2022-09-16T11:46:29.008Z,0.45
2022-09-16T11:49:21.146Z,1.02
2022-09-16T11:52:43.433Z,0.40
2022-09-16T11:55:20.111Z,2.13
2022-09-16T11:57:55.116Z,0.43
2022-09-16T12:00:23.093Z,2.00
2022-09-16T12:03:21.812Z,0.22
2022-09-16T12:05:55.082Z,0.30
2022-09-16T12:08:37.393Z,0.52
2022-09-16T12:11:36.898Z,0.45
2022-09-16T12:14:26.294Z,0.22
2022-09-16T12:17:02.158Z,0.30
2022-09-16T12:19:41.462Z,0.90
2022-09-16T12:22:19.539Z,0.30
2022-09-16T12:24:57.733Z,0.20
2022-09-16T12:27:55.308Z,0.40
2022-09-16T12:30:27.855Z,1.08
2022-09-16T12:33:22.383Z,0.30
2022-09-16T12:36:19.007Z,0.75
2022-09-16T12:38:49.267Z,0.40
2022-09-16T12:41:51.755Z,1.67
2022-09-16T12:44:35.300Z,0.68
2022-09-16T12:47:30.151Z,0.75
2022-09-16T12:50:19.127Z,1.10
2022-09-16T12:53:21.693Z,0.60
2022-09-16T12:56:00.604Z,0.95
2022-09-16T12:58:36.691Z,0.40
2022-09-16T13:01:16.616Z,0.40
2022-09-16T13:03:52.879Z,0.35
2022-09-16T13:06:27.378Z,0.50
2022-09-16T13:08:55.706Z,0.90
2022-09-16T13:14:28.202Z,0.28
2022-09-16T13:16:57.659Z,1.10
2022-09-16T13:19:35.463Z,0.63
2022-09-16T13:22:21.021Z,0.45
2022-09-16T13:25:11.796Z,0.63
2022-09-16T13:27:40.838Z,1.10
2022-09-16T13:30:13.985Z,0.40
2022-09-16T13:32:45.593Z,0.80
2022-09-16T13:35:19.160Z,0.70
2022-09-16T13:37:51.692Z,2.72
2022-09-16T13:40:25.508Z,0.40
2022-09-16T13:43:14.372Z,1.15
2022-09-16T13:45:44.817Z,0.43
2022-09-16T13:48:18.991Z,0.45
2022-09-16T13:50:55.032Z,0.68
2022-09-16T13:53:29.928Z,0.63
2022-09-16T13:56:41.256Z,0.38
2022-09-16T13:59:08.354Z,0.50
2022-09-16T14:01:59.975Z,0.50
2022-09-16T14:04:52.063Z,0.55
2022-09-16T14:07:49.335Z,0.88
2022-09-16T14:10:40.420Z,0.30
2022-09-16T14:13:16.796Z,0.38
2022-09-16T14:15:50.709Z,0.40
2022-09-16T14:18:24.321Z,2.70
2022-09-16T14:20:59.036Z,0.52
2022-09-16T14:23:26.783Z,0.40
2022-09-16T14:25:55.519Z,0.45
2022-09-16T14:28:28.050Z,0.70
2022-09-16T14:31:00.527Z,0.88
2022-09-16T14:33:43.854Z,0.40
2022-09-16T14:36:15.203Z,0.40
2022-09-16T14:38:50.806Z,0.60
2022-09-16T14:41:50.052Z,0.57
2022-09-16T14:44:20.593Z,0.30
2022-09-16T14:47:07.406Z,1.50
2022-09-16T14:49:38.795Z,0.60
2022-09-16T14:52:16.199Z,1.58
2022-09-16T14:54:46.902Z,0.43
2022-09-16T14:57:29.560Z,0.60
2022-09-16T15:00:10.391Z,0.65
2022-09-16T15:02:51.853Z,0.30
2022-09-16T15:05:41.140Z,0.32
2022-09-16T15:08:28.135Z,0.70
2022-09-16T15:10:59.220Z,0.40
2022-09-16T15:13:35.961Z,0.45
2022-09-16T15:16:23.526Z,0.40
2022-09-16T15:19:00.762Z,0.50
2022-09-16T15:21:34.852Z,0.40
2022-09-16T15:24:03.846Z,0.60
2022-09-16T15:26:38.930Z,0.50
2022-09-16T15:29:26.397Z,0.65
2022-09-16T15:31:53.901Z,0.52
2022-09-16T15:34:24.653Z,0.45
2022-09-16T15:36:57.080Z,0.52
2022-09-16T15:39:25.733Z,0.43
2022-09-16T15:42:13.732Z,0.50
2022-09-16T15:45:14.156Z,0.38
2022-09-16T15:47:55.392Z,0.40
2022-09-16T15:50:25.175Z,0.28
2022-09-16T15:52:59.773Z,0.50
2022-09-16T15:55:52.406Z,0.40
2022-09-16T15:58:45.900Z,1.20
2022-09-16T16:01:19.441Z,0.55
2022-09-16T16:03:56.591Z,0.45
2022-09-16T16:07:00.419Z,2.08
2022-09-16T16:09:30.049Z,0.50
2022-09-16T16:12:21.866Z,0.75
2022-09-16T16:14:49.379Z,0.50
2022-09-16T16:17:24.131Z,2.38
2022-09-16T16:19:51.597Z,0.77
2022-09-16T16:22:20.679Z,1.25
2022-09-16T16:24:49.662Z,0.60
2022-09-16T16:27:23.634Z,0.50
2022-09-16T16:29:51.829Z,1.35
2022-09-16T16:32:19.610Z,0.52
2022-09-16T16:34:52.234Z,0.50
2022-09-16T16:37:44.810Z,0.40
2022-09-16T16:40:10.016Z,0.60
2022-09-16T16:42:37.360Z,0.80
2022-09-16T16:45:06.708Z,0.63
2022-09-16T16:47:35.155Z,0.60
2022-09-16T16:50:06.721Z,1.45
2022-09-16T16:52:35.101Z,0.60
2022-09-16T16:55:02.842Z,0.68
2022-09-16T16:57:30.176Z,0.60
2022-09-16T16:59:57.356Z,0.43
2022-09-16T17:02:24.850Z,0.60
2022-09-16T17:04:52.452Z,0.60
2022-09-16T17:07:27.867Z,0.60
2022-09-16T17:09:57.585Z,0.52
2022-09-16T17:12:25.740Z,0.70
2022-09-16T17:14:52.999Z,0.50
2022-09-16T17:17:20.157Z,1.95
2022-09-16T17:19:47.565Z,0.40
2022-09-16T17:22:15.447Z,0.52
2022-09-16T17:24:45.687Z,1.00
2022-09-16T17:27:19.809Z,0.52
2022-09-16T17:29:48.142Z,0.50
2022-09-16T17:32:16.285Z,0.63
2022-09-16T17:34:43.685Z,1.48
2022-09-16T17:37:11.645Z,1.23
2022-09-16T17:39:38.859Z,0.85
2022-09-16T17:42:06.693Z,0.60
2022-09-16T17:44:33.971Z,0.60
2022-09-16T17:47:01.548Z,0.73
2022-09-16T17:49:30.495Z,0.60
2022-09-16T17:51:58.995Z,1.05
2022-09-16T17:54:29.175Z,0.57
2022-09-16T17:56:56.444Z,0.60
2022-09-16T17:59:26.445Z,0.63
2022-09-16T18:01:56.462Z,0.70
2022-09-16T18:04:26.163Z,0.60
2022-09-16T18:06:56.490Z,0.50
2022-09-16T18:09:24.723Z,1.38
2022-09-16T18:11:53.393Z,0.95
2022-09-16T18:14:23.675Z,0.60
2022-09-16T18:16:52.669Z,1.33
2022-09-16T18:19:21.469Z,1.60
2022-09-16T18:21:49.199Z,0.80
2022-09-16T18:24:16.557Z,1.40
2022-09-16T18:26:45.134Z,0.80
2022-09-16T18:29:15.163Z,0.60
2022-09-16T18:31:45.635Z,0.90
2022-09-16T18:34:13.957Z,0.67
2022-09-16T18:36:43.184Z,0.90
2022-09-16T18:39:15.841Z,0.97
2022-09-16T18:41:45.235Z,0.70
2022-09-16T18:44:25.123Z,0.70
2022-09-16T18:46:53.808Z,0.70
2022-09-16T18:49:22.217Z,1.38
2022-09-16T18:51:53.170Z,1.07
2022-09-16T18:54:28.676Z,2.77
2022-09-16T18:57:00.073Z,1.00
2022-09-16T18:59:30.820Z,0.73
2022-09-16T19:02:03.439Z,0.70
2022-09-16T19:04:34.101Z,0.80
2022-09-16T19:07:08.133Z,1.52
2022-09-16T19:09:41.857Z,0.93
2022-09-16T19:12:11.339Z,0.80
2022-09-16T19:14:39.879Z,0.60
2022-09-16T19:17:08.567Z,1.07
2022-09-16T19:19:35.841Z,0.70
2022-09-16T19:22:06.288Z,0.70
2022-09-16T19:24:34.189Z,0.60
2022-09-16T19:27:01.692Z,0.87
2022-09-16T19:29:28.984Z,0.80
2022-09-16T19:32:00.019Z,0.60
2022-09-16T19:34:27.819Z,0.60
2022-09-16T19:36:58.524Z,0.70
2022-09-16T19:39:37.019Z,1.53
2022-09-16T19:42:07.394Z,1.17
2022-09-16T19:44:42.824Z,0.87
2022-09-16T19:47:12.372Z,0.70
2022-09-16T19:49:40.280Z,3.03
2022-09-16T19:52:08.144Z,0.70
2022-09-16T19:54:35.743Z,0.90
2022-09-16T19:57:04.036Z,0.83
2022-09-16T19:59:31.198Z,0.70
2022-09-16T20:01:58.982Z,1.00
2022-09-16T20:04:31.856Z,0.70
2022-09-16T20:07:00.575Z,0.90
2022-09-16T20:09:28.941Z,0.60
2022-09-16T20:11:57.468Z,1.00
2022-09-16T20:14:34.045Z,0.60
2022-09-16T20:17:01.236Z,0.80
2022-09-16T20:19:28.784Z,1.50
2022-09-16T20:21:56.338Z,0.63
2022-09-16T20:24:24.542Z,0.60
2022-09-16T20:26:54.199Z,0.80
2022-09-16T20:29:21.663Z,1.80
2022-09-16T20:31:55.139Z,1.63
2022-09-16T20:34:24.550Z,0.60
2022-09-16T20:36:52.140Z,1.13
2022-09-16T20:39:19.954Z,0.60
2022-09-16T20:41:50.029Z,0.90
2022-09-16T20:44:17.316Z,0.70
2022-09-16T20:46:44.893Z,2.30
2022-09-16T20:49:16.113Z,0.70
2022-09-16T20:51:43.891Z,0.60
2022-09-16T20:54:13.460Z,0.80
2022-09-16T20:56:42.876Z,0.93
2022-09-16T20:59:12.298Z,1.37
2022-09-16T21:01:41.799Z,0.50
2022-09-16T21:04:17.162Z,0.70
2022-09-16T21:06:45.555Z,0.97
2022-09-16T21:09:15.362Z,1.10
2022-09-16T21:11:45.820Z,0.70
2022-09-16T21:14:16.534Z,2.20
2022-09-16T21:16:45.710Z,0.70
2022-09-16T21:19:13.700Z,0.70
2022-09-16T21:21:44.614Z,0.70
2022-09-16T21:24:13.417Z,2.43
2022-09-16T21:26:41.837Z,2.20
2022-09-16T21:29:12.170Z,0.90
2022-09-16T21:31:41.304Z,0.70
2022-09-16T21:34:15.179Z,1.30
2022-09-16T21:36:44.982Z,1.03
2022-09-16T21:39:14.364Z,0.80
2022-09-16T21:41:43.110Z,0.73
2022-09-16T21:44:11.116Z,0.70
2022-09-16T21:46:45.390Z,0.60
2022-09-16T21:49:22.501Z,1.50
2022-09-16T21:51:54.093Z,1.50
2022-09-16T21:54:21.796Z,2.20
2022-09-16T21:56:50.391Z,1.43
2022-09-16T21:59:20.020Z,2.03
2022-09-16T22:01:49.685Z,0.50
2022-09-16T22:04:21.566Z,2.47
2022-09-16T22:06:51.638Z,0.60
2022-09-16T22:09:19.234Z,0.60
2022-09-16T22:11:47.374Z,0.63
2022-09-16T22:14:14.934Z,0.50
2022-09-16T22:16:42.052Z,1.77
2022-09-16T22:19:11.810Z,0.70
2022-09-16T22:21:42.850Z,0.57
2022-09-16T22:24:10.693Z,0.60
2022-09-16T22:26:38.415Z,0.60
2022-09-16T22:29:06.911Z,1.13
2022-09-16T22:31:37.870Z,0.60
2022-09-16T22:34:08.830Z,0.60
2022-09-16T22:36:36.951Z,2.57
2022-09-16T22:39:15.402Z,2.00
2022-09-16T22:41:42.745Z,0.60
2022-09-16T22:44:10.252Z,0.60
2022-09-16T22:46:48.139Z,1.07
2022-09-16T22:49:16.271Z,1.30
2022-09-16T22:51:43.999Z,0.57
2022-09-16T22:54:13.130Z,0.60
2022-09-16T22:56:41.001Z,0.60
2022-09-16T22:59:13.551Z,0.60
2022-09-16T23:01:41.048Z,0.50
2022-09-16T23:04:09.930Z,0.63
2022-09-16T23:06:39.173Z,1.43
2022-09-16T23:09:07.957Z,0.60
2022-09-16T23:11:36.290Z,0.60
2022-09-16T23:14:06.547Z,0.70
2022-09-16T23:16:36.516Z,0.93
2022-09-16T23:19:06.332Z,0.83
2022-09-16T23:21:33.580Z,0.70
2022-09-16T23:24:02.839Z,0.60
2022-09-16T23:26:33.411Z,0.73
2022-09-16T23:29:02.289Z,0.70
2022-09-16T23:31:32.844Z,0.77
2022-09-16T23:34:01.220Z,0.43
2022-09-16T23:36:28.762Z,0.70
2022-09-16T23:38:56.350Z,0.60
2022-09-16T23:41:28.490Z,0.53
2022-09-16T23:43:56.843Z,0.60
2022-09-16T23:46:31.349Z,1.60
2022-09-16T23:48:59.425Z,1.57
2022-09-16T23:51:28.939Z,0.60
2022-09-16T23:54:00.030Z,0.50
2022-09-16T23:56:28.291Z,0.93
2022-09-16T23:58:59.057Z,0.70
